createdAt,value
2019-01-12T00:00:21.035Z,7.80
2019-01-12T00:02:49.603Z,7.70
2019-01-12T00:05:18.157Z,7.80
2019-01-12T00:07:46.622Z,7.80
2019-01-12T00:10:15.118Z,7.70
2019-01-12T00:12:43.651Z,7.70
2019-01-12T00:15:12.210Z,7.70
2019-01-12T00:17:40.770Z,7.70
2019-01-12T00:20:09.390Z,7.70
2019-01-12T00:22:37.949Z,7.70
2019-01-12T00:25:07.766Z,7.80
2019-01-12T00:27:36.303Z,7.80
2019-01-12T00:30:07.897Z,7.80
2019-01-12T00:32:36.425Z,7.80
2019-01-12T00:35:05.945Z,7.80
2019-01-12T00:37:34.428Z,7.80
2019-01-12T00:40:02.985Z,7.80
2019-01-12T00:42:31.478Z,7.80
2019-01-12T00:45:00.095Z,7.80
2019-01-12T00:47:28.790Z,7.80
2019-01-12T00:49:57.294Z,7.70
2019-01-12T00:52:25.855Z,7.80
2019-01-12T00:54:54.429Z,7.80
2019-01-12T00:57:22.961Z,7.80
2019-01-12T00:59:51.459Z,7.80
2019-01-12T01:02:19.987Z,7.70
2019-01-12T01:04:48.466Z,7.80
2019-01-12T01:07:17.011Z,7.70
2019-01-12T01:09:45.559Z,7.70
2019-01-12T01:12:14.026Z,7.70
2019-01-12T01:14:42.513Z,7.70
2019-01-12T01:17:11.036Z,7.80
2019-01-12T01:19:39.580Z,7.80
2019-01-12T01:22:08.146Z,7.80
2019-01-12T01:24:36.706Z,7.80
2019-01-12T01:27:05.440Z,7.90
2019-01-12T01:29:33.968Z,7.90
2019-01-12T01:32:02.479Z,8.00
2019-01-12T01:34:31.037Z,8.00
2019-01-12T01:36:59.638Z,8.00
2019-01-12T01:39:28.122Z,8.00
2019-01-12T01:41:58.697Z,7.90
2019-01-12T01:44:26.911Z,7.90
2019-01-12T01:46:55.670Z,8.00
2019-01-12T01:49:24.183Z,8.00
2019-01-12T01:51:52.747Z,8.00
2019-01-12T01:54:21.303Z,8.00
2019-01-12T01:56:49.959Z,8.00
2019-01-12T01:59:19.350Z,8.00
2019-01-12T02:01:47.899Z,7.90
2019-01-12T02:04:16.463Z,7.90
2019-01-12T02:06:45.043Z,7.90
2019-01-12T02:09:13.581Z,7.80
2019-01-12T02:11:42.326Z,7.80
2019-01-12T02:14:10.866Z,7.90
2019-01-12T02:16:39.347Z,7.80
2019-01-12T02:19:07.917Z,7.70
2019-01-12T02:21:36.487Z,7.80
2019-01-12T02:24:05.091Z,7.80
2019-01-12T02:26:33.604Z,7.80
2019-01-12T02:29:02.147Z,7.80
2019-01-12T02:31:30.714Z,7.80
2019-01-12T02:34:02.186Z,7.80
2019-01-12T02:36:30.664Z,7.70
2019-01-12T02:38:59.140Z,7.70
2019-01-12T02:41:27.719Z,7.80
2019-01-12T02:43:56.243Z,7.80
2019-01-12T02:46:24.732Z,7.80
2019-01-12T02:48:53.271Z,7.90
2019-01-12T02:51:22.077Z,7.80
2019-01-12T02:53:50.697Z,7.70
2019-01-12T02:56:19.253Z,7.60
2019-01-12T02:58:47.920Z,7.60
2019-01-12T03:01:16.481Z,7.60
2019-01-12T03:03:45.011Z,7.60
2019-01-12T03:06:13.588Z,7.60
2019-01-12T03:08:42.172Z,7.70
2019-01-12T03:11:10.691Z,7.60
2019-01-12T03:13:39.430Z,7.70
2019-01-12T03:16:07.980Z,7.60
2019-01-12T03:18:36.535Z,7.50
2019-01-12T03:21:05.089Z,7.50
2019-01-12T03:23:33.631Z,7.50
2019-01-12T03:26:02.209Z,7.50
2019-01-12T03:28:30.749Z,7.40
2019-01-12T03:30:59.330Z,7.40
2019-01-12T03:33:27.851Z,7.40
2019-01-12T03:35:56.362Z,7.50
2019-01-12T03:38:24.887Z,7.50
2019-01-12T03:40:54.275Z,7.50
2019-01-12T03:43:22.743Z,7.50
2019-01-12T03:45:51.307Z,7.40
2019-01-12T03:48:19.959Z,7.40
2019-01-12T03:50:48.454Z,7.30
2019-01-12T03:53:17.029Z,7.20
2019-01-12T03:55:45.559Z,7.20
2019-01-12T03:58:14.051Z,7.30
2019-01-12T04:00:42.609Z,7.30
2019-01-12T04:03:11.183Z,7.40
2019-01-12T04:05:39.737Z,7.40
2019-01-12T04:08:08.354Z,7.50
2019-01-12T04:10:36.803Z,7.50
2019-01-12T04:13:05.311Z,7.60
2019-01-12T04:15:33.834Z,7.50
2019-01-12T04:18:02.311Z,7.50
2019-01-12T04:20:33.583Z,7.50
2019-01-12T04:23:02.174Z,7.50
2019-01-12T04:25:34.056Z,7.40
2019-01-12T04:28:03.588Z,7.40
2019-01-12T04:30:32.093Z,7.40
2019-01-12T04:33:00.623Z,7.40
2019-01-12T04:35:29.206Z,7.40
2019-01-12T04:37:57.756Z,7.40
2019-01-12T04:40:27.136Z,7.40
2019-01-12T04:42:55.652Z,7.50
2019-01-12T04:45:24.201Z,7.60
2019-01-12T04:47:52.761Z,7.50
2019-01-12T04:50:21.237Z,7.50
2019-01-12T04:52:49.790Z,7.50
2019-01-12T04:55:18.277Z,7.50
2019-01-12T04:57:46.820Z,7.50
2019-01-12T05:00:16.766Z,7.50
2019-01-12T05:02:45.343Z,7.50
2019-01-12T05:05:14.530Z,7.50
2019-01-12T05:07:43.158Z,7.50
2019-01-12T05:10:13.065Z,7.50
2019-01-12T05:12:41.638Z,7.50
2019-01-12T05:15:12.639Z,7.50
2019-01-12T05:17:41.214Z,7.50
2019-01-12T05:20:15.503Z,7.50
2019-01-12T05:22:44.049Z,7.50
2019-01-12T05:25:12.499Z,7.60
2019-01-12T05:27:41.092Z,7.60
2019-01-12T05:30:16.995Z,7.60
2019-01-12T05:32:45.765Z,7.60
2019-01-12T05:35:14.386Z,7.50
2019-01-12T05:37:45.728Z,7.50
2019-01-12T05:40:14.467Z,7.50
2019-01-12T05:42:43.071Z,7.50
2019-01-12T05:45:12.769Z,7.50
2019-01-12T05:47:41.333Z,7.50
2019-01-12T05:50:12.003Z,7.50
2019-01-12T05:52:40.497Z,7.40
2019-01-12T05:55:09.789Z,7.40
2019-01-12T05:57:38.357Z,7.40
2019-01-12T06:00:09.951Z,7.40
2019-01-12T06:02:38.432Z,7.40
2019-01-12T06:05:07.058Z,7.50
2019-01-12T06:07:35.546Z,7.40
2019-01-12T06:10:07.041Z,7.40
2019-01-12T06:12:35.622Z,7.40
2019-01-12T06:15:07.082Z,7.40
2019-01-12T06:17:35.544Z,7.40
2019-01-12T06:20:07.067Z,7.40
2019-01-12T06:22:35.635Z,7.40
2019-01-12T06:25:04.910Z,7.40
2019-01-12T06:27:33.485Z,7.40
2019-01-12T06:30:02.913Z,7.40
2019-01-12T06:32:31.439Z,7.30
2019-01-12T06:34:59.920Z,7.40
2019-01-12T06:37:28.494Z,7.30
2019-01-12T06:39:57.040Z,7.40
2019-01-12T06:42:25.563Z,7.30
2019-01-12T06:44:54.026Z,7.40
2019-01-12T06:47:22.471Z,7.30
2019-01-12T06:49:50.970Z,7.30
2019-01-12T06:52:19.523Z,7.30
2019-01-12T06:54:48.062Z,7.30
2019-01-12T06:57:16.546Z,7.30
2019-01-12T06:59:45.092Z,7.40
2019-01-12T07:02:13.628Z,7.30
2019-01-12T07:04:42.126Z,7.30
2019-01-12T07:07:10.656Z,7.40
2019-01-12T07:09:39.155Z,7.50
2019-01-12T07:12:07.711Z,7.40
2019-01-12T07:14:36.250Z,7.40
2019-01-12T07:17:05.230Z,7.40
2019-01-12T07:19:33.770Z,7.40
2019-01-12T07:22:02.445Z,7.30
2019-01-12T07:24:30.934Z,7.30
2019-01-12T07:26:59.464Z,7.20
2019-01-12T07:29:27.940Z,7.10
2019-01-12T07:31:56.412Z,7.10
2019-01-12T07:34:24.985Z,7.00
2019-01-12T07:36:53.526Z,7.00
2019-01-12T07:39:22.095Z,7.00
2019-01-12T07:41:50.689Z,7.10
2019-01-12T07:44:19.230Z,7.20
2019-01-12T07:46:47.765Z,7.20
2019-01-12T07:49:16.343Z,7.20
2019-01-12T07:51:44.890Z,7.20
2019-01-12T07:54:13.476Z,7.20
2019-01-12T07:56:42.020Z,7.20
2019-01-12T07:59:10.490Z,7.30
2019-01-12T08:01:38.998Z,7.30
2019-01-12T08:04:07.633Z,7.30
2019-01-12T08:06:36.189Z,7.30
2019-01-12T08:09:07.702Z,7.30
2019-01-12T08:11:36.239Z,7.30
2019-01-12T08:14:04.946Z,7.40
2019-01-12T08:16:33.429Z,7.40
2019-01-12T08:19:02.004Z,7.40
2019-01-12T08:21:30.561Z,7.40
2019-01-12T08:23:59.124Z,7.30
2019-01-12T08:26:31.168Z,7.30
2019-01-12T08:28:57.821Z,7.20
2019-01-12T08:31:26.306Z,7.30
2019-01-12T08:33:54.843Z,7.30
2019-01-12T08:36:23.328Z,7.30
2019-01-12T08:38:51.931Z,7.20
2019-01-12T08:41:20.414Z,7.20
2019-01-12T08:43:48.982Z,7.20
2019-01-12T08:46:17.540Z,7.20
2019-01-12T08:48:48.895Z,7.10
2019-01-12T08:51:18.638Z,7.10
2019-01-12T08:53:47.221Z,7.20
2019-01-12T08:56:15.773Z,7.30
2019-01-12T08:58:44.355Z,7.30
2019-01-12T09:01:12.834Z,7.30
2019-01-12T09:03:41.387Z,7.40
2019-01-12T09:06:10.673Z,7.40
2019-01-12T09:08:39.283Z,7.50
2019-01-12T09:11:07.750Z,7.60
2019-01-12T09:13:36.235Z,7.60
2019-01-12T09:16:06.462Z,7.60
2019-01-12T09:18:35.013Z,7.60
2019-01-12T09:21:03.546Z,7.50
2019-01-12T09:23:32.027Z,7.50
2019-01-12T09:26:00.602Z,7.60
2019-01-12T09:28:29.134Z,7.60
2019-01-12T09:30:57.600Z,7.50
2019-01-12T09:33:26.089Z,7.40
2019-01-12T09:35:54.702Z,7.40
2019-01-12T09:38:23.282Z,7.40
2019-01-12T09:40:51.848Z,7.40
2019-01-12T09:43:20.390Z,7.30
2019-01-12T09:45:49.002Z,7.30
2019-01-12T09:48:20.223Z,7.30
2019-01-12T09:50:48.698Z,7.20
2019-01-12T09:53:17.238Z,7.20
2019-01-12T09:55:45.780Z,7.20
2019-01-12T09:58:14.263Z,7.20
2019-01-12T10:00:43.329Z,7.20
2019-01-12T10:03:11.851Z,7.20
2019-01-12T10:05:40.335Z,7.20
2019-01-12T10:08:08.971Z,7.20
2019-01-12T10:10:37.540Z,7.10
2019-01-12T10:13:06.074Z,7.10
2019-01-12T10:15:34.526Z,7.10
2019-01-12T10:18:03.034Z,7.10
2019-01-12T10:20:34.516Z,7.10
2019-01-12T10:23:02.969Z,7.10
2019-01-12T10:25:31.490Z,7.10
2019-01-12T10:28:00.055Z,7.10
2019-01-12T10:30:28.580Z,7.10
2019-01-12T10:32:57.232Z,7.10
2019-01-12T10:35:25.788Z,7.20
2019-01-12T10:37:54.381Z,7.20
2019-01-12T10:40:22.874Z,7.20
2019-01-12T10:42:51.489Z,7.20
2019-01-12T10:45:21.838Z,7.20
2019-01-12T10:47:50.919Z,7.20
2019-01-12T10:50:22.377Z,7.20
2019-01-12T10:52:50.928Z,7.20
2019-01-12T10:55:19.468Z,7.30
2019-01-12T10:57:48.802Z,7.30
2019-01-12T11:00:21.642Z,7.30
2019-01-12T11:02:51.086Z,7.30
2019-01-12T11:05:19.852Z,7.30
2019-01-12T11:07:48.350Z,7.40
2019-01-12T11:10:17.178Z,7.40
2019-01-12T11:12:45.790Z,7.30
2019-01-12T11:15:19.905Z,7.30
2019-01-12T11:17:48.893Z,7.30
2019-01-12T11:20:17.822Z,7.40
2019-01-12T11:22:46.711Z,7.40
2019-01-12T11:25:16.091Z,7.40
2019-01-12T11:27:44.593Z,7.50
2019-01-12T11:30:20.548Z,7.50
2019-01-12T11:32:54.304Z,7.60
2019-01-12T11:35:22.561Z,7.60
2019-01-12T11:37:51.182Z,7.60
2019-01-12T11:40:21.103Z,7.60
2019-01-12T11:42:51.078Z,7.60
2019-01-12T11:45:20.038Z,7.70
2019-01-12T11:47:48.865Z,7.70
2019-01-12T11:50:17.502Z,7.70
2019-01-12T11:52:46.684Z,7.70
2019-01-12T11:55:16.697Z,7.70
2019-01-12T11:57:45.621Z,7.70
2019-01-12T12:00:25.338Z,7.70
2019-01-12T12:02:54.122Z,7.70
2019-01-12T12:05:22.835Z,7.70
2019-01-12T12:07:51.840Z,7.60
2019-01-12T12:10:21.223Z,7.60
2019-01-12T12:12:49.808Z,7.60
2019-01-12T12:15:20.281Z,7.70
2019-01-12T12:17:49.130Z,7.80
2019-01-12T12:20:19.710Z,7.70
2019-01-12T12:22:48.336Z,7.80
2019-01-12T12:25:17.260Z,7.80
2019-01-12T12:27:45.838Z,7.80
2019-01-12T12:30:21.498Z,7.90
2019-01-12T12:32:50.098Z,7.90
2019-01-12T12:35:18.634Z,7.90
2019-01-12T12:37:47.183Z,7.90
2019-01-12T12:40:21.130Z,7.90
2019-01-12T12:42:49.614Z,7.90
2019-01-12T12:45:21.075Z,8.00
2019-01-12T12:47:49.712Z,8.00
2019-01-12T12:50:18.415Z,8.00
2019-01-12T12:52:47.030Z,8.00
2019-01-12T12:55:17.120Z,7.90
2019-01-12T12:57:45.608Z,8.00
2019-01-12T13:00:16.980Z,8.00
2019-01-12T13:02:45.504Z,8.00
2019-01-12T13:05:14.026Z,8.00
2019-01-12T13:07:42.571Z,8.00
2019-01-12T13:10:19.346Z,8.00
2019-01-12T13:12:47.978Z,7.90
2019-01-12T13:15:16.868Z,7.90
2019-01-12T13:17:45.738Z,7.90
2019-01-12T13:20:20.576Z,7.90
2019-01-12T13:22:49.753Z,8.00
2019-01-12T13:25:18.361Z,8.10
2019-01-12T13:27:47.252Z,8.10
2019-01-12T13:30:24.022Z,8.10
2019-01-12T13:32:52.669Z,8.10
2019-01-12T13:35:21.577Z,8.10
2019-01-12T13:37:50.608Z,8.10
2019-01-12T13:40:22.026Z,8.10
2019-01-12T13:42:53.532Z,8.10
2019-01-12T13:45:22.294Z,8.10
2019-01-12T13:47:50.856Z,8.10
2019-01-12T13:50:22.023Z,8.10
2019-01-12T13:52:50.581Z,8.10
2019-01-12T13:55:19.242Z,8.10
2019-01-12T13:57:48.238Z,8.10
2019-01-12T14:00:24.994Z,8.00
2019-01-12T14:02:53.710Z,8.00
2019-01-12T14:05:22.272Z,8.10
2019-01-12T14:07:56.117Z,8.20
2019-01-12T14:10:21.826Z,8.20
2019-01-12T14:12:50.395Z,8.10
2019-01-12T14:15:19.794Z,8.10
2019-01-12T14:17:50.193Z,8.10
2019-01-12T14:20:27.519Z,8.10
2019-01-12T14:22:56.059Z,8.20
2019-01-12T14:25:24.615Z,8.20
2019-01-12T14:27:54.946Z,8.20
2019-01-12T14:30:23.687Z,8.30
2019-01-12T14:32:52.178Z,8.20
2019-01-12T14:35:20.890Z,8.20
2019-01-12T14:37:49.586Z,8.30
2019-01-12T14:40:19.408Z,8.40
2019-01-12T14:42:48.089Z,8.30
2019-01-12T14:45:22.902Z,8.40
2019-01-12T14:47:51.796Z,8.30
2019-01-12T14:50:20.491Z,8.20
2019-01-12T14:52:49.072Z,8.20
2019-01-12T14:55:19.869Z,8.30
2019-01-12T14:57:48.418Z,8.30
2019-01-12T15:00:20.074Z,8.40
2019-01-12T15:02:48.632Z,8.40
2019-01-12T15:05:19.307Z,8.40
2019-01-12T15:07:47.894Z,8.30
2019-01-12T15:10:17.985Z,8.30
2019-01-12T15:12:46.951Z,8.30
2019-01-12T15:15:17.252Z,8.20
2019-01-12T15:17:46.008Z,8.10
2019-01-12T15:20:27.074Z,8.10
2019-01-12T15:22:55.811Z,8.10
2019-01-12T15:25:24.395Z,8.10
2019-01-12T15:27:53.016Z,8.00
2019-01-12T15:30:26.850Z,8.00
2019-01-12T15:32:55.645Z,8.00
2019-01-12T15:35:26.740Z,8.00
2019-01-12T15:37:55.326Z,8.00
2019-01-12T15:40:23.869Z,7.90
2019-01-12T15:42:53.611Z,7.80
2019-01-12T15:45:24.125Z,7.80
2019-01-12T15:47:52.756Z,7.90
2019-01-12T15:50:23.376Z,7.90
2019-01-12T15:52:52.085Z,7.90
2019-01-12T15:55:20.714Z,7.90
2019-01-12T15:57:50.274Z,8.00
2019-01-12T16:00:21.268Z,8.00
2019-01-12T16:02:49.876Z,8.00
2019-01-12T16:05:18.479Z,8.00
2019-01-12T16:07:47.205Z,8.00
2019-01-12T16:10:16.225Z,8.00
2019-01-12T16:12:44.771Z,8.10
2019-01-12T16:15:16.198Z,8.10
2019-01-12T16:17:47.881Z,8.00
2019-01-12T16:20:19.249Z,8.00
2019-01-12T16:22:47.834Z,7.90
2019-01-12T16:25:16.384Z,7.90
2019-01-12T16:27:44.990Z,7.90
2019-01-12T16:30:17.438Z,7.80
2019-01-12T16:32:46.081Z,7.90
2019-01-12T16:35:14.923Z,7.90
2019-01-12T16:37:43.715Z,7.90
2019-01-12T16:40:22.054Z,7.80
2019-01-12T16:42:50.885Z,7.80
2019-01-12T16:45:19.640Z,7.80
2019-01-12T16:47:48.205Z,7.80
2019-01-12T16:50:16.923Z,7.70
2019-01-12T16:52:45.470Z,7.80
2019-01-12T16:55:18.530Z,7.80
2019-01-12T16:57:47.076Z,7.80
2019-01-12T17:00:24.655Z,7.80
2019-01-12T17:02:54.466Z,7.90
2019-01-12T17:05:23.392Z,7.90
2019-01-12T17:07:51.958Z,7.90
2019-01-12T17:10:21.984Z,7.90
2019-01-12T17:12:50.871Z,7.90
2019-01-12T17:15:21.192Z,7.90
2019-01-12T17:17:49.887Z,7.90
2019-01-12T17:20:21.172Z,7.90
2019-01-12T17:22:50.884Z,7.90
2019-01-12T17:25:20.179Z,8.00
2019-01-12T17:27:50.390Z,8.00
2019-01-12T17:30:24.015Z,8.00
2019-01-12T17:32:52.660Z,8.00
2019-01-12T17:35:21.339Z,8.00
2019-01-12T17:37:49.902Z,8.00
2019-01-12T17:40:18.535Z,8.00
2019-01-12T17:42:47.102Z,8.00
2019-01-12T17:45:21.140Z,8.00
2019-01-12T17:47:49.678Z,7.90
2019-01-12T17:50:20.076Z,8.00
2019-01-12T17:52:48.783Z,7.90
2019-01-12T17:55:19.377Z,8.00
2019-01-12T17:57:48.027Z,8.00
2019-01-12T18:00:32.052Z,7.90
2019-01-12T18:03:00.657Z,8.00
2019-01-12T18:05:29.219Z,7.90
2019-01-12T18:07:57.789Z,8.00
2019-01-12T18:10:26.378Z,8.00
2019-01-12T18:12:55.021Z,8.00
2019-01-12T18:15:23.619Z,8.00
2019-01-12T18:17:52.165Z,8.10
2019-01-12T18:20:20.724Z,8.10
2019-01-12T18:22:49.291Z,8.10
2019-01-12T18:25:17.869Z,8.10
2019-01-12T18:27:49.314Z,8.00
2019-01-12T18:30:25.349Z,8.00
2019-01-12T18:32:53.980Z,8.00
2019-01-12T18:35:22.938Z,8.00
2019-01-12T18:37:52.274Z,8.00
2019-01-12T18:40:21.716Z,8.10
2019-01-12T18:42:50.276Z,8.10
2019-01-12T18:45:20.580Z,8.00
2019-01-12T18:47:50.329Z,8.10
2019-01-12T18:50:24.373Z,8.10
2019-01-12T18:52:53.855Z,8.00
2019-01-12T18:55:23.196Z,8.00
2019-01-12T18:57:52.845Z,7.90
2019-01-12T19:00:24.351Z,7.90
2019-01-12T19:02:53.474Z,8.00
2019-01-12T19:05:22.048Z,7.90
2019-01-12T19:07:50.673Z,7.90
2019-01-12T19:10:19.619Z,8.00
2019-01-12T19:12:48.193Z,8.00
2019-01-12T19:15:19.687Z,8.00
2019-01-12T19:17:48.380Z,8.00
2019-01-12T19:20:17.021Z,7.90
2019-01-12T19:22:45.616Z,7.90
2019-01-12T19:25:14.631Z,7.80
2019-01-12T19:27:44.725Z,7.90
2019-01-12T19:30:18.530Z,7.90
2019-01-12T19:32:47.155Z,7.90
2019-01-12T19:35:17.490Z,7.90
2019-01-12T19:37:50.214Z,7.90
2019-01-12T19:40:20.745Z,7.90
2019-01-12T19:42:49.371Z,7.90
2019-01-12T19:45:18.044Z,7.90
2019-01-12T19:47:47.872Z,8.00
2019-01-12T19:50:21.780Z,8.00
2019-01-12T19:52:50.822Z,8.00
2019-01-12T19:55:19.401Z,8.00
2019-01-12T19:57:47.950Z,8.00
2019-01-12T20:00:22.093Z,7.90
2019-01-12T20:02:52.429Z,7.90
2019-01-12T20:05:21.104Z,7.90
2019-01-12T20:07:49.837Z,7.90
2019-01-12T20:10:19.425Z,7.90
2019-01-12T20:12:48.101Z,7.90
2019-01-12T20:15:19.450Z,7.90
2019-01-12T20:17:48.369Z,7.80
2019-01-12T20:20:17.206Z,7.90
2019-01-12T20:22:45.757Z,7.90
2019-01-12T20:25:17.527Z,7.80
2019-01-12T20:27:47.640Z,7.80
2019-01-12T20:30:30.627Z,7.80
2019-01-12T20:33:03.577Z,7.80
2019-01-12T20:35:44.264Z,7.80
2019-01-12T20:38:18.969Z,7.70
2019-01-12T20:40:59.341Z,7.70
2019-01-12T20:43:39.880Z,7.50
2019-01-12T20:46:29.682Z,7.60
2019-01-12T20:49:10.133Z,7.50
2019-01-12T20:52:08.551Z,7.40
2019-01-12T20:54:40.198Z,7.40
2019-01-12T20:57:30.139Z,7.40
2019-01-12T21:00:10.362Z,7.40
2019-01-12T21:03:06.215Z,7.40
2019-01-12T21:05:48.056Z,7.40
2019-01-12T21:08:32.668Z,7.50
2019-01-12T21:11:10.357Z,7.40
2019-01-12T21:13:53.612Z,7.10
2019-01-12T21:16:25.541Z,6.70
2019-01-12T21:18:55.927Z,6.30
2019-01-12T21:21:24.558Z,6.20
2019-01-12T21:23:53.126Z,6.20
2019-01-12T21:26:22.961Z,6.20
2019-01-12T21:28:51.539Z,6.10
2019-01-12T21:31:20.482Z,6.20
2019-01-12T21:33:49.072Z,6.20
2019-01-12T21:36:17.919Z,6.20
2019-01-12T21:38:46.491Z,6.20
2019-01-12T21:41:15.061Z,6.10
2019-01-12T21:43:43.623Z,6.00
2019-01-12T21:46:12.191Z,6.00
2019-01-12T21:48:40.759Z,6.00
2019-01-12T21:51:09.315Z,5.90
2019-01-12T21:53:37.941Z,5.90
2019-01-12T21:56:06.451Z,5.80
2019-01-12T21:58:35.340Z,5.90
2019-01-12T22:01:04.074Z,5.90
2019-01-12T22:03:32.652Z,5.90
2019-01-12T22:06:01.219Z,5.90
2019-01-12T22:08:29.779Z,6.00
2019-01-12T22:10:58.366Z,6.00
2019-01-12T22:13:27.157Z,6.10
2019-01-12T22:15:56.739Z,6.10
2019-01-12T22:18:25.303Z,6.20
2019-01-12T22:20:53.887Z,6.30
2019-01-12T22:23:22.453Z,6.40
2019-01-12T22:25:51.022Z,6.40
2019-01-12T22:28:22.298Z,6.60
2019-01-12T22:30:50.861Z,6.60
2019-01-12T22:33:21.966Z,6.70
2019-01-12T22:35:50.542Z,6.70
2019-01-12T22:38:20.734Z,6.80
2019-01-12T22:40:49.302Z,6.80
2019-01-12T22:43:17.863Z,6.80
2019-01-12T22:45:46.445Z,6.80
2019-01-12T22:48:15.186Z,6.90
2019-01-12T22:50:43.760Z,7.00
2019-01-12T22:53:12.355Z,7.00
2019-01-12T22:55:40.920Z,7.00
2019-01-12T22:58:09.495Z,7.10
2019-01-12T23:00:59.409Z,7.10
2019-01-12T23:03:27.980Z,7.20
2019-01-12T23:05:56.543Z,7.20
2019-01-12T23:08:25.100Z,7.30
2019-01-12T23:10:53.667Z,7.20
2019-01-12T23:13:22.187Z,7.30
2019-01-12T23:15:50.731Z,7.40
2019-01-12T23:18:19.296Z,7.40
2019-01-12T23:20:47.848Z,7.40
2019-01-12T23:23:16.348Z,7.50
2019-01-12T23:25:44.886Z,7.50
2019-01-12T23:28:13.489Z,7.60
2019-01-12T23:30:42.086Z,7.60
2019-01-12T23:33:10.635Z,7.60
2019-01-12T23:35:39.131Z,7.60
2019-01-12T23:38:07.739Z,7.50
2019-01-12T23:40:36.293Z,7.50
2019-01-12T23:43:05.023Z,7.50
2019-01-12T23:45:33.518Z,7.50
2019-01-12T23:48:02.078Z,7.50
2019-01-12T23:50:31.557Z,7.50
2019-01-12T23:53:00.014Z,7.50
2019-01-12T23:55:28.506Z,7.50
2019-01-12T23:57:57.060Z,7.60
